Lowlands Sky — 3FJW9 — position and weather

sailwx.info

Track history (hours):
 
Tides and Currents Weather Stations Pressure Air Temp Water Temp Dewpoint Dewpoint Depression Visibility Wind Speed Wind Dir Waves Ship Positions

Lowlands Sky

Last reported at 2014-Oct-11 11:22 UTC. Time now 2014-Oct-22 03:12 UTC.
Position N 38°45' W 030°45'.
Warning: this ship's position is 10 days out of date.

Length 177 m; draft 9.4 m.

Type: Cargo ship. MMSI: 370830000.

Date/timePositionNaut miles runAvg speedWind from/ knotsBaromVisibWave heightAir tempDewpointWater temp
2014-Oct-11 11:22N 38°45' W 030°45'1112.6
2014-Oct-11 10:32N 38°49' W 030°32'1212.7
2014-Oct-11 09:33N 38°54' W 030°18'1312.8
2014-Oct-11 08:33N 38°59' W 030°03'1212.5
2014-Oct-11 07:34N 39°05' W 029°49'1313.0
2014-Oct-11 06:33N 39°12' W 029°34'1313.2
2014-Oct-11 05:33N 39°18' W 029°19'1312.7
2014-Oct-11 04:33N 39°24' W 029°05'1312.6
2014-Oct-11 03:34N 39°31' W 028°51'1312.7
2014-Oct-11 02:33N 39°38' W 028°37'1312.7
2014-Oct-11 01:33N 39°44' W 028°23'1312.8
2014-Oct-11 00:33N 39°50' W 028°08'  
2014-Oct-05 18:33N 50°31' E 000°09'1110.9
2014-Oct-05 17:33N 50°34' E 000°25'1211.7
2014-Oct-05 16:33N 50°39' E 000°42'1313.4
2014-Oct-05 15:33N 50°46' E 000°60'1514.2
2014-Oct-05 14:29N 50°56' E 001°19'1313.9
2014-Oct-05 13:33N 51°05' E 001°33'1312.6
2014-Oct-05 12:33N 51°14' E 001°47'1211.7
2014-Oct-05 11:33N 51°24' E 001°57'1111.3
2014-Oct-05 10:33N 51°33' E 002°09'1111.3
2014-Oct-05 09:33N 51°42' E 002°20'11113.1
2014-Oct-05 01:07N 53°06' E 004°17'911.2
2014-Oct-05 00:16N 53°14' E 004°27'1011.9
2014-Oct-04 23:26N 53°23' E 004°33'3112.8
2014-Oct-04 21:03N 53°52' E 004°47'713.0
2014-Oct-04 20:33N 53°58' E 004°51'1312.8
2014-Oct-04 19:32N 54°11' E 004°59'1212.5
2014-Oct-04 18:33N 54°22' E 005°04'1211.8
2014-Oct-04 17:33N 54°33' E 005°12'7311.5
2014-Oct-04 11:12N 55°35' E 006°19'1911.3
2014-Oct-04 09:30N 55°50' E 006°40'10811.7
2014-Oct-04 00:21N 57°27' E 008°07'911.3
2014-Oct-03 23:32N 57°31' E 008°22'1212.1
2014-Oct-03 22:32N 57°34' E 008°44'1212.2
2014-Oct-03 21:33N 57°38' E 009°06'2812.5
2014-Oct-03 19:17N 57°46' E 009°56'912.8
2014-Oct-03 18:33N 57°48' E 010°13'1212.2
2014-Oct-03 17:33N 57°50' E 010°36'9 8.8
2014-Oct-03 16:33N 57°44' E 010°47'5 5.3
2014-Oct-03 15:33N 57°41' E 010°39'0 0.0
2014-Oct-03 13:32N 57°41' E 010°39'0 0.0
2014-Oct-03 12:32N 57°41' E 010°39'0 0.0
2014-Oct-03 11:32N 57°41' E 010°39'0 0.0
2014-Oct-03 10:32N 57°41' E 010°39'0 0.0
2014-Oct-03 09:32N 57°41' E 010°39'0 0.0
2014-Oct-03 08:32N 57°41' E 010°39'0 0.0
2014-Oct-03 07:32N 57°41' E 010°39'0 0.0
2014-Oct-03 06:32N 57°41' E 010°39'0 0.0
2014-Oct-03 05:29N 57°41' E 010°39'0 0.0
2014-Oct-03 04:32N 57°41' E 010°39'0 0.0
2014-Oct-03 03:32N 57°41' E 010°39'0 0.0
2014-Oct-03 02:32N 57°41' E 010°39'0 0.1
2014-Oct-03 01:26N 57°41' E 010°39'4 5.0
2014-Oct-03 00:33N 57°40' E 010°47'1211.8
2014-Oct-02 23:33N 57°37' E 011°08'1312.6
2014-Oct-02 22:33N 57°28' E 011°25'1312.7
2014-Oct-02 21:33N 57°16' E 011°33'1312.7
2014-Oct-02 20:33N 57°05' E 011°42'1312.6
2014-Oct-02 19:34N 56°53' E 011°49'1312.5
2014-Oct-02 18:33N 56°40' E 011°49'1412.9
2014-Oct-02 17:28N 56°28' E 011°36'  
Track history (hours):
 
Tides and Currents Weather Stations Pressure Air Temp Water Temp Dewpoint Dewpoint Depression Visibility Wind Speed Wind Dir Waves Ship Positions

Lowlands Sky

Last reported at 2014-Oct-11 11:22 UTC. Time now 2014-Oct-22 03:12 UTC.
Position N 38°45' W 030°45'.
Warning: this ship's position is 10 days out of date.

Length 177 m; draft 9.4 m.

Type: Cargo ship. MMSI: 370830000.

Date/timePositionNaut miles runAvg speedWind from/ knotsBaromVisibWave heightAir tempDewpointWater temp
2014-Oct-11 11:22N 38°45' W 030°45'1112.6
2014-Oct-11 10:32N 38°49' W 030°32'1212.7
2014-Oct-11 09:33N 38°54' W 030°18'1312.8
2014-Oct-11 08:33N 38°59' W 030°03'1212.5
2014-Oct-11 07:34N 39°05' W 029°49'1313.0
2014-Oct-11 06:33N 39°12' W 029°34'1313.2
2014-Oct-11 05:33N 39°18' W 029°19'1312.7
2014-Oct-11 04:33N 39°24' W 029°05'1312.6
2014-Oct-11 03:34N 39°31' W 028°51'1312.7
2014-Oct-11 02:33N 39°38' W 028°37'1312.7
2014-Oct-11 01:33N 39°44' W 028°23'1312.8
2014-Oct-11 00:33N 39°50' W 028°08'  
2014-Oct-05 18:33N 50°31' E 000°09'1110.9
2014-Oct-05 17:33N 50°34' E 000°25'1211.7
2014-Oct-05 16:33N 50°39' E 000°42'1313.4
2014-Oct-05 15:33N 50°46' E 000°60'1514.2
2014-Oct-05 14:29N 50°56' E 001°19'1313.9
2014-Oct-05 13:33N 51°05' E 001°33'1312.6
2014-Oct-05 12:33N 51°14' E 001°47'1211.7
2014-Oct-05 11:33N 51°24' E 001°57'1111.3
2014-Oct-05 10:33N 51°33' E 002°09'1111.3
2014-Oct-05 09:33N 51°42' E 002°20'11113.1
2014-Oct-05 01:07N 53°06' E 004°17'911.2
2014-Oct-05 00:16N 53°14' E 004°27'1011.9
2014-Oct-04 23:26N 53°23' E 004°33'3112.8
2014-Oct-04 21:03N 53°52' E 004°47'713.0
2014-Oct-04 20:33N 53°58' E 004°51'1312.8
2014-Oct-04 19:32N 54°11' E 004°59'1212.5
2014-Oct-04 18:33N 54°22' E 005°04'1211.8
2014-Oct-04 17:33N 54°33' E 005°12'7311.5
2014-Oct-04 11:12N 55°35' E 006°19'1911.3
2014-Oct-04 09:30N 55°50' E 006°40'10811.7
2014-Oct-04 00:21N 57°27' E 008°07'911.3
2014-Oct-03 23:32N 57°31' E 008°22'1212.1
2014-Oct-03 22:32N 57°34' E 008°44'1212.2
2014-Oct-03 21:33N 57°38' E 009°06'2812.5
2014-Oct-03 19:17N 57°46' E 009°56'912.8
2014-Oct-03 18:33N 57°48' E 010°13'1212.2
2014-Oct-03 17:33N 57°50' E 010°36'9 8.8
2014-Oct-03 16:33N 57°44' E 010°47'5 5.3
2014-Oct-03 15:33N 57°41' E 010°39'0 0.0
2014-Oct-03 13:32N 57°41' E 010°39'0 0.0
2014-Oct-03 12:32N 57°41' E 010°39'0 0.0
2014-Oct-03 11:32N 57°41' E 010°39'0 0.0
2014-Oct-03 10:32N 57°41' E 010°39'0 0.0
2014-Oct-03 09:32N 57°41' E 010°39'0 0.0
2014-Oct-03 08:32N 57°41' E 010°39'0 0.0
2014-Oct-03 07:32N 57°41' E 010°39'0 0.0
2014-Oct-03 06:32N 57°41' E 010°39'0 0.0
2014-Oct-03 05:29N 57°41' E 010°39'0 0.0
2014-Oct-03 04:32N 57°41' E 010°39'0 0.0
2014-Oct-03 03:32N 57°41' E 010°39'0 0.0
2014-Oct-03 02:32N 57°41' E 010°39'0 0.1
2014-Oct-03 01:26N 57°41' E 010°39'4 5.0
2014-Oct-03 00:33N 57°40' E 010°47'1211.8
2014-Oct-02 23:33N 57°37' E 011°08'1312.6
2014-Oct-02 22:33N 57°28' E 011°25'1312.7
2014-Oct-02 21:33N 57°16' E 011°33'1312.7
2014-Oct-02 20:33N 57°05' E 011°42'1312.6
2014-Oct-02 19:34N 56°53' E 011°49'1312.5
2014-Oct-02 18:33N 56°40' E 011°49'1412.9
2014-Oct-02 17:28N 56°28' E 011°36'  

Dump ship's entire track history